Time;durP1;ratioP1;P1;durP2;ratioP2;P2;SDS_P1;SDS_P2;PMS_P1;PMS_P2;Temp;Humidity;BMP_temperature;BMP_pressure;BME280_temperature;BME280_humidity;BME280_pressure;Samples;Min_cycle;Max_cycle;Signal;HPM_P1;HPM_P2
2021/12/16 14:50:43;;;;;;;29.75;16.95;;;;;;;6.30;100.00;100533.50;4183321;28;20044;-71
2021/12/16 14:52:43;;;;;;;31.88;16.23;;;;;;;6.31;100.00;100540.63;4184175;28;20615;-72
2021/12/16 14:54:54;;;;;;;31.52;16.70;;;;;;;6.30;100.00;100535.41;4184216;28;20119;-72
2021/12/16 14:56:59;;;;;;;30.95;16.23;;;;;;;6.25;100.00;100525.31;4183756;28;20727;-72
2021/12/16 14:59:04;;;;;;;35.15;18.13;;;;;;;6.31;100.00;100537.88;4179823;28;20035;-72
2021/12/16 15:01:18;;;;;;;30.55;18.95;;;;;;;6.30;100.00;100533.50;4182903;28;20043;-72
2021/12/16 15:03:23;;;;;;;28.23;15.90;;;;;;;6.28;100.00;100529.38;4182540;28;20040;-72
2021/12/16 15:05:30;;;;;;;28.02;15.40;;;;;;;6.27;100.00;100536.00;4179364;28;20033;-72
2021/12/16 15:07:30;;;;;;;24.40;14.13;;;;;;;6.31;100.00;100535.13;4177195;28;20028;-72
2021/12/16 15:09:35;;;;;;;29.58;15.52;;;;;;;6.31;100.00;100523.31;4181705;28;20366;-72
2021/12/16 15:11:48;;;;;;;25.83;14.90;;;;;;;6.24;100.00;100531.13;4179842;28;23604;-72
2021/12/16 15:13:54;;;;;;;25.88;12.95;;;;;;;6.35;100.00;100529.81;4164710;28;20048;-72
2021/12/16 15:16:20;;;;;;;26.75;12.73;;;;;;;6.31;100.00;100537.06;4166580;28;20049;-72
2021/12/16 15:44:25;;;;;;;31.88;14.77;;;;;;;6.17;100.00;100546.03;4149464;28;20052;-72
2021/12/16 15:46:29;;;;;;;29.15;14.30;;;;;;;6.14;100.00;100538.41;4145683;28;20160;-72
2021/12/16 15:48:30;;;;;;;27.13;14.13;;;;;;;6.16;100.00;100552.66;4139994;28;20081;-72
2021/12/16 15:50:37;;;;;;;26.05;13.57;;;;;;;6.19;100.00;100556.72;4138924;28;20058;-72
2021/12/16 15:52:41;;;;;;;24.90;13.32;;;;;;;6.28;100.00;100557.69;4139132;28;20049;-72
2021/12/16 15:54:47;;;;;;;32.33;14.93;;;;;;;6.20;100.00;100561.13;4139016;28;20052;-72
2021/12/16 15:56:49;;;;;;;27.55;13.50;;;;;;;6.18;100.00;100555.91;4138654;28;20041;-72
2021/12/16 15:58:59;;;;;;;36.22;18.33;;;;;;;6.14;100.00;100543.09;4138808;28;20341;-72
2021/12/16 16:01:06;;;;;;;33.25;20.88;;;;;;;6.19;100.00;100551.25;4137306;28;20053;-72
2021/12/16 16:03:08;;;;;;;40.58;25.45;;;;;;;6.16;100.00;100546.34;4136591;28;20138;-72
2021/12/16 16:05:09;;;;;;;36.97;22.20;;;;;;;6.13;100.00;100542.28;4138247;28;20057;-72
2021/12/16 16:07:12;;;;;;;34.67;21.88;;;;;;;6.16;100.00;100541.66;4136475;28;20413;-72
2021/12/16 16:09:13;;;;;;;28.58;17.58;;;;;;;6.18;100.00;100553.16;4137444;28;20128;-72
2021/12/16 16:11:18;;;;;;;29.15;17.33;;;;;;;6.16;100.00;100544.41;4138270;28;20478;-72
2021/12/16 16:13:25;;;;;;;37.47;19.67;;;;;;;6.08;100.00;100547.03;4136541;28;20096;-72
2021/12/16 16:15:25;;;;;;;29.65;16.50;;;;;;;6.07;100.00;100543.47;4138133;28;20091;-72
2021/12/16 16:17:26;;;;;;;35.13;18.40;;;;;;;6.09;100.00;100563.22;4137839;28;20133;-72
2021/12/16 16:19:34;;;;;;;31.73;18.63;;;;;;;6.11;100.00;100554.66;4138554;28;20324;-72
2021/12/16 16:21:39;;;;;;;29.25;16.80;;;;;;;6.08;100.00;100556.09;4138857;28;20414;-72
2021/12/16 16:23:43;;;;;;;36.53;20.70;;;;;;;6.06;100.00;100557.50;4138511;28;20305;-72
2021/12/16 16:25:45;;;;;;;30.80;16.63;;;;;;;6.10;100.00;100556.59;4136926;28;20308;-72
2021/12/16 16:27:45;;;;;;;27.30;14.73;;;;;;;6.15;100.00;100559.28;4131398;28;20049;-72
2021/12/16 16:29:49;;;;;;;29.08;14.65;;;;;;;6.13;100.00;100566.19;4136476;28;20478;-72
2021/12/16 16:31:51;;;;;;;28.85;14.07;;;;;;;6.15;100.00;100569.44;4136572;28;20038;-72
2021/12/16 16:33:53;;;;;;;24.33;13.07;;;;;;;6.16;100.00;100563.66;4129653;28;20123;-72
2021/12/16 16:36:03;;;;;;;30.83;14.32;;;;;;;6.12;100.00;100579.13;4133294;28;20590;-72
2021/12/16 16:38:15;;;;;;;29.17;15.25;;;;;;;6.11;100.00;100577.47;4129420;28;20054;-72
2021/12/16 16:40:16;;;;;;;27.63;13.98;;;;;;;6.13;100.00;100583.50;4132290;28;20116;-72
2021/12/16 16:42:16;;;;;;;29.35;15.43;;;;;;;6.12;100.00;100579.13;4136026;28;20112;-72
2021/12/16 16:44:19;;;;;;;27.08;14.90;;;;;;;6.12;100.00;100578.28;4138200;28;20038;-72
2021/12/16 16:46:31;;;;;;;29.48;15.27;;;;;;;6.12;100.00;100578.28;4135612;28;20359;-72
2021/12/16 16:48:47;;;;;;;33.72;17.33;;;;;;;6.08;100.00;100589.06;4134188;28;20165;-72
2021/12/16 16:50:47;;;;;;;29.98;14.40;;;;;;;6.09;100.00;100576.13;4137801;28;20124;-72
2021/12/16 16:52:50;;;;;;;33.17;15.70;;;;;;;6.10;100.00;100581.31;4138315;28;20046;-72
2021/12/16 16:55:10;;;;;;;29.42;16.10;;;;;;;6.09;100.00;100584.38;4137891;28;20042;-72
2021/12/16 16:57:15;;;;;;;28.38;13.80;;;;;;;6.05;100.00;100589.66;4137311;28;20454;-72
2021/12/16 16:59:30;;;;;;;29.45;16.33;;;;;;;6.05;100.00;100597.09;4137594;28;20038;-72
2021/12/16 17:01:32;;;;;;;30.88;14.25;;;;;;;6.03;100.00;100605.59;4137359;28;20371;-72
2021/12/16 17:03:32;;;;;;;31.25;14.32;;;;;;;6.09;100.00;100609.13;4137716;28;20048;-72
2021/12/16 17:05:33;;;;;;;30.50;14.27;;;;;;;6.09;100.00;100617.34;4137887;28;20097;-72
2021/12/16 17:07:53;;;;;;;24.38;12.10;;;;;;;6.10;100.00;100617.06;4136912;28;20101;-72
2021/12/16 17:09:53;;;;;;;28.45;12.95;;;;;;;6.08;100.00;100623.97;4136482;28;20149;-72
2021/12/16 17:11:55;;;;;;;25.02;13.05;;;;;;;6.09;100.00;100622.84;4137258;28;20089;-72
2021/12/16 17:14:11;;;;;;;22.52;12.13;;;;;;;6.07;100.00;100625.09;4137683;28;20209;-72
2021/12/16 17:18:41;;;;;;;33.05;18.10;;;;;;;6.09;100.00;100626.41;4136941;28;20045;-72
2021/12/16 17:20:42;;;;;;;29.35;15.63;;;;;;;6.10;100.00;100639.03;4138001;28;20095;-72
2021/12/16 17:22:49;;;;;;;29.08;13.25;;;;;;;6.11;100.00;100634.34;4137394;28;20042;-72
2021/12/16 17:24:50;;;;;;;29.38;14.13;;;;;;;6.17;100.00;100641.44;4137538;28;20049;-72
2021/12/16 17:26:57;;;;;;;25.25;14.95;;;;;;;6.16;100.00;100637.06;4136912;28;20045;-72
2021/12/16 17:29:05;;;;;;;27.08;12.98;;;;;;;6.15;100.00;100640.91;4137401;28;20528;-72
2021/12/16 17:31:06;;;;;;;28.23;14.38;;;;;;;6.12;100.00;100634.09;4137150;28;20046;-72
2021/12/16 17:33:06;;;;;;;24.48;13.48;;;;;;;6.10;100.00;100630.78;4137293;28;20050;-72
2021/12/16 17:35:30;;;;;;;27.42;14.73;;;;;;;6.10;100.00;100635.47;4137725;28;20153;-72
2021/12/16 17:37:35;;;;;;;39.97;23.17;;;;;;;6.10;100.00;100640.97;4136393;28;20050;-72
2021/12/16 17:39:46;;;;;;;34.47;21.85;;;;;;;6.08;100.00;100645.97;4137233;28;20050;-72
2021/12/16 17:42:10;;;;;;;29.95;19.17;;;;;;;6.06;100.00;100628.94;4137346;28;20129;-72
2021/12/16 17:44:14;;;;;;;32.55;15.25;;;;;;;6.11;100.00;100640.66;4136735;28;20206;-72
2021/12/16 17:46:16;;;;;;;27.33;15.55;;;;;;;6.10;100.00;100641.78;4136517;28;20040;-72
2021/12/16 17:48:21;;;;;;;29.08;15.00;;;;;;;6.10;100.00;100652.78;4136674;28;20040;-72
2021/12/16 17:50:26;;;;;;;30.88;15.13;;;;;;;6.04;100.00;100644.91;4137165;28;20041;-72
2021/12/16 17:52:31;;;;;;;25.30;13.55;;;;;;;6.05;100.00;100643.81;4137425;28;20153;-72
2021/12/16 17:54:41;;;;;;;29.20;16.33;;;;;;;6.06;100.00;100639.94;4137446;28;20451;-72
2021/12/16 17:56:55;;;;;;;28.80;15.38;;;;;;;6.09;100.00;100642.09;4136305;28;20241;-72
2021/12/16 17:58:59;;;;;;;30.92;16.67;;;;;;;6.06;100.00;100637.19;4136907;28;20399;-72
2021/12/16 18:01:18;;;;;;;27.70;15.65;;;;;;;6.11;100.00;100650.84;4136570;28;20486;-72
2021/12/16 18:03:25;;;;;;;25.90;14.48;;;;;;;6.08;100.00;100644.03;4136560;28;20045;-72
2021/12/16 18:05:37;;;;;;;26.48;14.55;;;;;;;6.07;100.00;100650.63;4137182;28;20445;-72
2021/12/16 18:07:39;;;;;;;32.37;16.60;;;;;;;6.05;100.00;100647.38;4136133;28;20045;-72
2021/12/16 18:09:43;;;;;;;32.47;15.63;;;;;;;6.10;100.00;100657.47;4137361;28;20288;-72
2021/12/16 18:11:57;;;;;;;28.10;15.35;;;;;;;6.08;100.00;100662.44;4136425;28;20069;-72
2021/12/16 18:14:08;;;;;;;31.00;15.52;;;;;;;6.06;100.00;100657.25;4137222;28;20830;-72
2021/12/16 18:16:15;;;;;;;29.58;16.05;;;;;;;6.07;100.00;100664.38;4136490;28;20120;-72
2021/12/16 18:18:17;;;;;;;28.63;14.75;;;;;;;6.05;100.00;100658.38;4135888;28;20026;-72
2021/12/16 18:20:33;;;;;;;32.33;18.20;;;;;;;6.06;100.00;100664.69;4136824;28;20040;-72
2021/12/16 18:22:38;;;;;;;25.67;14.98;;;;;;;6.04;100.00;100659.47;4136754;28;20064;-72
2021/12/16 18:24:43;;;;;;;28.85;16.50;;;;;;;6.05;100.00;100665.78;4137135;28;20069;-72
2021/12/16 18:26:50;;;;;;;34.92;19.05;;;;;;;6.04;100.00;100658.63;4135652;28;20113;-72
2021/12/16 18:28:50;;;;;;;24.48;13.70;;;;;;;6.02;100.00;100647.94;4135546;28;20048;-72
2021/12/16 18:31:15;;;;;;;29.25;16.20;;;;;;;6.04;100.00;100656.72;4136839;28;20058;-72
2021/12/16 18:33:20;;;;;;;29.17;17.23;;;;;;;6.07;100.00;100655.31;4136194;28;20108;-72
2021/12/16 18:35:46;;;;;;;29.30;16.70;;;;;;;6.04;100.00;100664.97;4136736;28;20136;-72
2021/12/16 18:37:49;;;;;;;30.70;17.80;;;;;;;6.04;100.00;100673.22;4136167;28;20058;-72
2021/12/16 18:39:53;;;;;;;28.17;15.55;;;;;;;6.00;100.00;100666.66;4136690;28;20042;-72
2021/12/16 18:42:00;;;;;;;30.23;15.32;;;;;;;6.05;100.00;100671.28;4136360;28;20042;-72
2021/12/16 18:44:00;;;;;;;33.33;16.67;;;;;;;6.00;100.00;100674.91;4136138;28;20045;-72
2021/12/16 18:46:01;;;;;;;32.10;16.85;;;;;;;6.10;100.00;100676.69;4135939;28;20528;-72
2021/12/16 18:48:16;;;;;;;28.52;17.25;;;;;;;6.08;100.00;100678.94;4136331;28;20026;-72
2021/12/16 18:50:39;;;;;;;40.30;24.38;;;;;;;6.05;100.00;100672.09;4135763;28;20030;-72
2021/12/16 18:54:27;;;;;;;32.75;18.23;;;;;;;6.05;100.00;100679.53;4135267;28;20483;-72
2021/12/16 18:55:06;;;;;;;37.03;21.48;;;;;;;6.01;100.00;100670.22;4135569;28;20513;-72
2021/12/16 18:57:18;;;;;;;29.45;16.58;;;;;;;6.02;100.00;100672.69;4135127;28;20042;-72
2021/12/16 18:59:19;;;;;;;27.40;12.48;;;;;;;6.03;100.00;100673.50;4136291;28;20038;-72
2021/12/16 19:01:32;;;;;;;21.75;13.20;;;;;;;6.02;100.00;100680.09;4136628;28;20526;-72
2021/12/16 19:03:32;;;;;;;24.42;13.02;;;;;;;5.98;100.00;100668.91;4136284;28;20493;-72
2021/12/16 19:05:33;;;;;;;20.83;11.68;;;;;;;6.03;100.00;100674.31;4136408;28;20041;-72
2021/12/16 19:07:35;;;;;;;17.27;10.52;;;;;;;6.04;100.00;100680.63;4135784;28;20046;-72
2021/12/16 19:09:37;;;;;;;17.13;9.68;;;;;;;6.06;100.00;100692.16;4136670;28;20677;-72
2021/12/16 19:11:44;;;;;;;19.38;11.25;;;;;;;6.07;100.00;100688.28;4135229;28;20049;-72
2021/12/16 19:13:46;;;;;;;17.10;10.32;;;;;;;6.06;100.00;100672.94;4135341;28;20046;-72
2021/12/16 19:15:50;;;;;;;16.75;9.30;;;;;;;6.16;100.00;100679.09;4136291;28;20509;-72
2021/12/16 19:17:51;;;;;;;15.82;8.95;;;;;;;6.15;100.00;100673.91;4135420;28;20041;-72
2021/12/16 19:19:54;;;;;;;14.85;9.13;;;;;;;6.14;100.00;100681.34;4136124;28;20050;-72
2021/12/16 19:21:56;;;;;;;14.38;8.63;;;;;;;6.10;100.00;100684.94;4136674;28;20056;-72
2021/12/16 19:23:56;;;;;;;15.20;9.27;;;;;;;6.10;100.00;100687.69;4136210;28;20050;-72
2021/12/16 19:25:58;;;;;;;14.93;9.57;;;;;;;6.09;100.00;100700.63;4138755;28;20471;-71
2021/12/16 19:27:59;;;;;;;18.63;10.40;;;;;;;6.07;100.00;100705.59;4138413;28;20606;-73
2021/12/16 19:29:59;;;;;;;17.40;10.65;;;;;;;6.02;100.00;100689.16;4139351;28;20076;-71
2021/12/16 19:32:00;;;;;;;18.52;10.52;;;;;;;6.05;100.00;100690.53;4139081;28;20500;-71
2021/12/16 19:34:05;;;;;;;16.05;9.50;;;;;;;6.05;100.00;100688.59;4138954;28;20052;-71
2021/12/16 19:36:09;;;;;;;17.50;9.63;;;;;;;6.05;100.00;100687.78;4138130;28;20048;-71
2021/12/16 19:38:11;;;;;;;13.63;8.98;;;;;;;6.09;100.00;100689.63;4138663;28;20148;-72
2021/12/16 19:40:20;;;;;;;18.48;11.30;;;;;;;6.04;100.00;100691.63;4139008;28;20206;-72
2021/12/16 19:42:21;;;;;;;18.45;10.43;;;;;;;6.00;100.00;100694.16;4135836;28;20054;-72
2021/12/16 19:44:25;;;;;;;22.38;12.90;;;;;;;6.01;100.00;100701.28;4138064;28;20046;-71
2021/12/16 19:46:25;;;;;;;20.45;12.25;;;;;;;5.96;100.00;100703.25;4138656;28;20870;-71
2021/12/16 19:48:26;;;;;;;23.42;14.98;;;;;;;5.96;100.00;100708.75;4137112;28;20049;-71
2021/12/16 19:50:28;;;;;;;18.48;11.68;;;;;;;5.94;100.00;100706.31;4139313;28;20144;-72
2021/12/16 19:52:28;;;;;;;19.13;11.40;;;;;;;5.91;100.00;100699.47;4138979;28;20092;-72
2021/12/16 19:54:29;;;;;;;13.80;9.38;;;;;;;5.96;100.00;100717.84;4139212;28;20128;-71
2021/12/16 19:56:29;;;;;;;14.55;9.52;;;;;;;5.94;100.00;100703.56;4138401;28;20470;-72
2021/12/16 19:58:31;;;;;;;13.13;9.00;;;;;;;5.95;100.00;100713.44;4138536;28;20160;-71
2021/12/16 20:00:37;;;;;;;11.50;7.90;;;;;;;5.96;100.00;100725.25;4136910;28;20042;-72
2021/12/16 20:02:38;;;;;;;11.82;7.43;;;;;;;5.94;100.00;100736.53;4138319;28;20530;-72
2021/12/16 20:04:43;;;;;;;11.23;7.70;;;;;;;5.96;100.00;100730.72;4138941;28;20104;-71
2021/12/16 20:06:47;;;;;;;12.90;7.85;;;;;;;5.95;100.00;100724.41;4138032;28;20061;-71
2021/12/16 20:08:49;;;;;;;11.52;7.90;;;;;;;5.93;100.00;100721.16;4138881;28;20054;-72
2021/12/16 20:10:58;;;;;;;14.82;10.18;;;;;;;5.95;100.00;100718.09;4138408;28;20161;-71
2021/12/16 20:12:58;;;;;;;13.30;9.82;;;;;;;5.93;100.00;100728.56;4137491;28;20050;-72
2021/12/16 20:15:05;;;;;;;11.43;7.95;;;;;;;5.95;100.00;100734.59;4138499;28;20570;-72
2021/12/16 20:17:14;;;;;;;17.15;10.52;;;;;;;5.89;100.00;100729.16;4137731;28;20173;-72
2021/12/16 20:19:17;;;;;;;14.85;9.80;;;;;;;5.93;100.00;100734.06;4138525;28;20120;-72
2021/12/16 20:21:22;;;;;;;13.43;8.73;;;;;;;5.94;100.00;100728.28;4138497;28;20048;-72
2021/12/16 20:23:23;;;;;;;16.35;10.63;;;;;;;5.90;100.00;100730.81;4138526;28;20131;-72
2021/12/16 20:25:29;;;;;;;14.50;9.48;;;;;;;5.88;100.00;100735.75;4137880;28;20053;-72
2021/12/16 20:27:37;;;;;;;15.27;9.90;;;;;;;5.86;100.00;100735.19;4137713;28;20419;-72
2021/12/16 20:29:42;;;;;;;13.45;10.00;;;;;;;5.84;100.00;100748.41;4137017;28;20038;-72
2021/12/16 20:31:47;;;;;;;13.82;8.65;;;;;;;5.80;100.00;100741.88;4138258;28;20053;-72
2021/12/16 20:33:56;;;;;;;12.65;9.20;;;;;;;5.78;100.00;100752.31;4137826;28;20112;-72
2021/12/16 20:36:03;;;;;;;14.82;9.73;;;;;;;5.76;100.00;100746.31;4138291;28;20262;-72
2021/12/16 20:38:09;;;;;;;16.98;10.43;;;;;;;5.78;100.00;100754.25;4137244;28;20093;-72
2021/12/16 20:40:24;;;;;;;15.73;10.23;;;;;;;5.79;100.00;100753.13;4137962;28;20458;-72
2021/12/16 20:42:30;;;;;;;13.45;9.77;;;;;;;5.77;100.00;100752.63;4137846;28;20395;-71
2021/12/16 20:44:32;;;;;;;18.90;11.10;;;;;;;5.75;100.00;100746.59;4138493;28;20542;-71
2021/12/16 20:46:34;;;;;;;;;;;;;;;5.77;100.00;100753.44;4137640;28;20124;-72
2021/12/16 20:48:40;;;;;;;16.77;10.93;;;;;;;5.78;100.00;100759.75;4138506;28;20245;-73
2021/12/16 20:50:41;;;;;;;15.95;11.43;;;;;;;5.75;100.00;100755.66;4137810;28;20058;-73
2021/12/16 20:52:42;;;;;;;14.15;9.13;;;;;;;5.69;100.00;100751.31;4137956;28;20430;-73
2021/12/16 20:54:50;;;;;;;16.50;11.15;;;;;;;5.69;100.00;100758.75;4137639;28;20038;-72
2021/12/16 20:56:52;;;;;;;18.38;11.30;;;;;;;5.66;100.00;100751.91;4135584;28;20042;-72
2021/12/16 20:58:56;;;;;;;15.33;10.43;;;;;;;5.67;100.00;100758.22;4136652;28;20136;-72
2021/12/16 21:01:03;;;;;;;12.18;8.45;;;;;;;5.70;97.96;100763.13;4138101;28;20364;-71
2021/12/16 21:03:05;;;;;;;12.35;8.63;;;;;;;5.75;97.52;100761.16;4135710;28;20142;-71
2021/12/16 21:05:14;;;;;;;13.40;8.23;;;;;;;5.78;98.11;100768.00;4135060;28;20408;-72
2021/12/16 21:07:16;;;;;;;13.52;9.45;;;;;;;5.75;98.49;100768.59;4136306;28;20042;-72
2021/12/16 21:09:19;;;;;;;11.48;7.70;;;;;;;5.73;99.13;100766.13;4136105;28;20038;-72
2021/12/16 21:11:19;;;;;;;11.82;8.40;;;;;;;5.75;99.39;100763.91;4136317;28;20052;-72
2021/12/16 21:13:20;;;;;;;13.10;7.57;;;;;;;5.74;99.61;100764.19;4136530;28;20411;-71
2021/12/16 21:15:21;;;;;;;12.80;9.15;;;;;;;5.72;100.00;100775.47;4137269;28;20046;-72
2021/12/16 21:17:22;;;;;;;18.17;12.85;;;;;;;5.70;100.00;100763.13;4135526;28;20409;-72
2021/12/16 21:19:23;;;;;;;18.45;9.68;;;;;;;5.69;100.00;100764.25;4136771;28;20053;-72
2021/12/16 21:21:24;;;;;;;11.63;7.10;;;;;;;5.69;100.00;100767.00;4136269;28;20481;-72
2021/12/16 21:23:24;;;;;;;11.48;7.47;;;;;;;5.69;100.00;100767.81;4136598;28;20037;-72
2021/12/16 21:25:25;;;;;;;12.93;10.18;;;;;;;5.70;100.00;100760.38;4136423;28;20060;-72
2021/12/16 21:27:27;;;;;;;18.05;16.20;;;;;;;5.69;100.00;100747.75;4135797;28;20495;-72
2021/12/16 21:29:28;;;;;;;15.48;9.43;;;;;;;5.64;100.00;100743.97;4136671;28;20069;-72
2021/12/16 21:31:29;;;;;;;12.65;8.80;;;;;;;5.66;100.00;100743.69;4136799;28;20605;-72
2021/12/16 21:33:36;;;;;;;11.82;7.93;;;;;;;5.68;100.00;100757.13;4136226;28;20053;-72
2021/12/16 21:35:43;;;;;;;11.65;7.18;;;;;;;5.77;99.75;100749.88;4136091;28;20158;-72
2021/12/16 21:37:45;;;;;;;12.13;7.30;;;;;;;5.74;100.00;100754.03;4134663;28;20080;-72
2021/12/16 21:39:48;;;;;;;13.38;8.10;;;;;;;5.77;99.91;100758.13;4135293;28;20389;-72
2021/12/16 21:41:52;;;;;;;16.75;9.55;;;;;;;5.73;100.00;100757.06;4136468;28;20042;-70
2021/12/16 21:43:53;;;;;;;21.42;13.60;;;;;;;5.66;100.00;100757.41;4136907;28;20608;-72
2021/12/16 21:45:54;;;;;;;14.50;10.05;;;;;;;5.59;100.00;100765.97;4135594;28;20048;-72
2021/12/16 21:47:55;;;;;;;16.42;9.55;;;;;;;5.55;100.00;100764.94;4135239;28;20042;-72
2021/12/16 21:49:56;;;;;;;13.13;8.82;;;;;;;5.51;100.00;100757.56;4136618;28;20407;-72
2021/12/16 21:51:57;;;;;;;15.13;9.50;;;;;;;5.50;100.00;100767.72;4137251;28;20486;-71
2021/12/16 21:53:57;;;;;;;14.98;10.00;;;;;;;5.50;100.00;100766.91;4136633;28;20141;-71
2021/12/16 21:55:59;;;;;;;13.25;8.70;;;;;;;5.51;100.00;100763.84;4136797;28;20050;-72
2021/12/16 21:58:04;;;;;;;24.48;18.63;;;;;;;5.48;100.00;100760.88;4136269;28;20050;-72
2021/12/16 22:00:08;;;;;;;14.23;9.88;;;;;;;5.49;99.74;100766.09;4136760;28;20142;-72
2021/12/16 22:02:08;;;;;;;14.55;9.40;;;;;;;5.54;99.53;100779.75;4135821;28;20058;-72
2021/12/16 22:04:09;;;;;;;11.57;8.38;;;;;;;5.53;99.34;100778.09;4136943;28;20850;-72
2021/12/16 22:06:10;;;;;;;14.20;9.18;;;;;;;5.50;98.57;100777.88;4136585;28;20065;-72
2021/12/16 22:08:11;;;;;;;13.05;7.75;;;;;;;5.49;98.13;100771.56;4136455;28;20108;-73
2021/12/16 22:10:13;;;;;;;13.45;8.77;;;;;;;5.48;98.93;100769.94;4136427;28;20134;-71
2021/12/16 22:12:13;;;;;;;11.23;7.70;;;;;;;5.50;98.86;100769.66;4136739;28;20037;-71
2021/12/16 22:14:19;;;;;;;12.70;8.52;;;;;;;5.46;98.71;100774.06;4136749;28;20045;-72
2021/12/16 22:16:22;;;;;;;10.95;7.63;;;;;;;5.50;98.54;100777.88;4136645;28;20069;-71
2021/12/16 22:18:25;;;;;;;12.68;7.38;;;;;;;5.49;98.43;100784.47;4135211;28;20407;-72
2021/12/16 22:20:28;;;;;;;11.27;8.23;;;;;;;5.49;98.20;100779.00;4136496;28;20049;-72
2021/12/16 22:22:28;;;;;;;10.25;7.38;;;;;;;5.49;96.78;100777.06;4136788;28;20038;-72
2021/12/16 22:24:29;;;;;;;10.57;7.07;;;;;;;5.51;95.18;100771.28;4136506;28;20057;-71
2021/12/16 22:26:29;;;;;;;11.95;7.65;;;;;;;5.51;94.29;100774.84;4136738;28;20448;-72
2021/12/16 22:28:29;;;;;;;10.50;6.47;;;;;;;5.50;94.02;100775.94;4136203;28;20069;-71
2021/12/16 22:30:30;;;;;;;11.65;8.07;;;;;;;5.52;93.73;100784.72;4136936;28;20129;-72
2021/12/16 22:32:31;;;;;;;10.55;6.82;;;;;;;5.50;94.21;100780.63;4137077;28;20061;-72
2021/12/16 22:34:33;;;;;;;10.48;7.60;;;;;;;5.49;94.39;100789.97;4136392;28;20057;-71
2021/12/16 22:36:37;;;;;;;11.15;7.15;;;;;;;5.44;95.65;100782.59;4135600;28;20046;-72
2021/12/16 22:38:37;;;;;;;11.30;6.60;;;;;;;5.40;96.14;100787.03;4136106;28;20120;-72
2021/12/16 22:40:40;;;;;;;10.75;7.70;;;;;;;5.37;96.54;100784.84;4136657;28;20507;-72
2021/12/16 22:42:40;;;;;;;10.38;6.85;;;;;;;5.36;96.40;100788.69;4136738;28;20049;-72
2021/12/16 22:44:42;;;;;;;9.77;6.45;;;;;;;5.34;97.22;100786.25;4136705;28;20096;-72
2021/12/16 22:46:43;;;;;;;11.10;7.30;;;;;;;5.35;98.14;100778.81;4135726;28;20053;-72
2021/12/16 22:48:44;;;;;;;9.95;6.90;;;;;;;5.33;98.58;100776.38;4136750;28;20084;-72
2021/12/16 22:50:44;;;;;;;10.50;6.85;;;;;;;5.27;98.73;100766.53;4136238;28;20140;-72
2021/12/16 22:52:45;;;;;;;11.25;8.13;;;;;;;5.26;98.67;100764.09;4136710;28;20046;-72
2021/12/16 22:54:45;;;;;;;13.52;8.00;;;;;;;5.22;98.84;100763.84;4136566;28;20483;-72
2021/12/16 22:56:47;;;;;;;18.10;12.52;;;;;;;5.18;98.60;100762.78;4135726;28;20108;-72
2021/12/16 22:58:48;;;;;;;30.60;18.75;;;;;;;5.15;98.46;100763.34;4138519;28;20399;-71
2021/12/16 23:01:00;;;;;;;15.35;9.70;;;;;;;5.15;98.30;100763.34;4139639;28;20038;-72
2021/12/16 23:03:00;;;;;;;15.55;10.20;;;;;;;5.14;98.20;100758.16;4139563;28;20056;-72
2021/12/16 23:05:03;;;;;;;21.40;13.55;;;;;;;5.10;99.02;100754.34;4139504;28;20042;-71
2021/12/16 23:07:06;;;;;;;18.27;9.98;;;;;;;5.01;99.54;100752.19;4139201;28;20487;-71
2021/12/16 23:09:09;;;;;;;17.42;10.07;;;;;;;4.97;100.00;100753.88;4139445;28;20149;-71
2021/12/16 23:11:12;;;;;;;14.18;9.02;;;;;;;4.94;99.99;100759.09;4139568;28;20054;-71
2021/12/16 23:13:12;;;;;;;13.88;8.52;;;;;;;4.87;100.00;100756.69;4139099;28;20048;-71
2021/12/16 23:15:49;;;;;;;15.15;9.02;;;;;;;4.82;100.00;100751.25;4139446;28;20132;-71
2021/12/16 23:24:18;;;;;;;22.63;10.60;;;;;;;4.67;100.00;100754.91;4139223;28;20213;-71
2021/12/16 23:26:18;;;;;;;21.77;10.02;;;;;;;4.64;100.00;100751.91;4139482;28;20029;-71
2021/12/16 23:28:19;;;;;;;19.15;10.10;;;;;;;4.61;100.00;100755.22;4138973;28;20514;-71
2021/12/16 23:30:19;;;;;;;17.27;10.18;;;;;;;4.56;100.00;100750.59;4139158;28;20503;-71
2021/12/16 23:32:22;;;;;;;21.20;11.27;;;;;;;4.56;100.00;100747.03;4138784;28;20710;-71
2021/12/16 23:34:22;;;;;;;18.23;10.68;;;;;;;4.53;100.00;100745.66;4139155;28;20037;-71
2021/12/16 23:36:23;;;;;;;19.30;10.40;;;;;;;4.56;100.00;100752.50;4139212;28;20410;-71
2021/12/16 23:40:39;;;;;;;16.27;9.82;;;;;;;4.55;100.00;100748.94;4139372;28;20041;-71
2021/12/16 23:47:32;;;;;;;12.50;7.88;;;;;;;4.48;100.00;100741.03;4137559;28;20064;-71
2021/12/16 23:54:14;;;;;;;12.48;7.20;;;;;;;4.41;100.00;100740.53;4138790;28;20557;-71
2021/12/16 23:56:14;;;;;;;11.45;7.00;;;;;;;4.40;100.00;100736.16;4138759;28;20034;-71
2021/12/16 23:58:15;;;;;;;12.05;7.75;;;;;;;4.40;100.00;100740.81;4138372;28;20042;-71
